Time;durP1;ratioP1;P1;durP2;ratioP2;P2;SDS_P1;SDS_P2;PMS_P1;PMS_P2;Temp;Humidity;BMP_temperature;BMP_pressure;BME280_temperature;BME280_humidity;BME280_pressure;Samples;Min_cycle;Max_cycle;Signal;HPM_P1;HPM_P2
2023/01/10 00:00:25;;;;;;;22.80;5.78;;;7.80;94.50;;;;;;5024548;28;20441;-77
2023/01/10 00:02:51;;;;;;;23.92;6.65;;;7.70;94.60;;;;;;5030121;28;20476;-76
2023/01/10 00:05:17;;;;;;;18.25;5.60;;;7.80;94.60;;;;;;5022195;28;20051;-76
2023/01/10 00:07:44;;;;;;;24.50;7.53;;;7.70;94.60;;;;;;5056735;28;20028;-76
2023/01/10 00:10:10;;;;;;;24.75;5.32;;;7.70;94.50;;;;;;5044218;28;20560;-76
2023/01/10 00:15:20;;;;;;;20.83;5.13;;;7.70;94.70;;;;;;5054863;28;20445;-76
2023/01/10 00:17:46;;;;;;;22.20;5.50;;;7.70;94.70;;;;;;5052785;28;20021;-76
2023/01/10 00:20:12;;;;;;;15.90;5.88;;;7.70;94.80;;;;;;5050098;28;20151;-77
2023/01/10 00:22:38;;;;;;;22.13;4.70;;;7.60;94.80;;;;;;5055705;28;20483;-76
2023/01/10 00:25:04;;;;;;;13.32;4.90;;;7.70;94.70;;;;;;5026656;28;20029;-76
2023/01/10 00:27:30;;;;;;;23.52;5.47;;;7.70;94.70;;;;;;5035598;28;20049;-75
2023/01/10 00:29:59;;;;;;;15.30;3.90;;;7.70;94.60;;;;;;5017429;28;20029;-77
2023/01/10 00:32:25;;;;;;;24.33;5.93;;;7.60;94.50;;;;;;5049633;28;20079;-77
2023/01/10 00:34:51;;;;;;;18.42;6.10;;;7.60;94.50;;;;;;5021011;28;20022;-77
2023/01/10 00:37:17;;;;;;;27.25;6.57;;;7.50;94.50;;;;;;5040986;28;20089;-76
2023/01/10 00:39:42;;;;;;;19.48;5.13;;;7.50;94.60;;;;;;5054866;28;20063;-77
2023/01/10 00:44:54;;;;;;;17.55;4.30;;;7.50;94.80;;;;;;5041231;28;20036;-76
2023/01/10 00:47:20;;;;;;;19.40;4.47;;;7.40;94.80;;;;;;5043961;28;20017;-76
2023/01/10 00:49:45;;;;;;;18.55;4.80;;;7.50;94.90;;;;;;5024238;28;20471;-75
2023/01/10 00:52:11;;;;;;;24.23;4.70;;;7.40;94.80;;;;;;5023385;28;20025;-76
2023/01/10 00:54:37;;;;;;;13.55;4.20;;;7.40;94.80;;;;;;5035570;28;20056;-77
2023/01/10 00:57:03;;;;;;;33.83;6.00;;;7.40;94.90;;;;;;5032124;28;20029;-76
2023/01/10 00:59:29;;;;;;;16.52;4.47;;;7.40;94.90;;;;;;5061448;28;20433;-77
2023/01/10 01:01:55;;;;;;;17.92;3.97;;;7.40;94.80;;;;;;5060404;28;20020;-76
2023/01/10 01:04:21;;;;;;;13.77;4.53;;;7.50;94.80;;;;;;5010940;28;20029;-76
2023/01/10 01:06:48;;;;;;;17.38;4.47;;;7.40;94.80;;;;;;5024345;28;20017;-76
2023/01/10 01:09:14;;;;;;;12.82;4.28;;;7.50;94.70;;;;;;5026419;28;20029;-76
2023/01/10 01:11:39;;;;;;;20.42;6.32;;;7.40;94.70;;;;;;5045194;28;20020;-75
2023/01/10 01:14:05;;;;;;;16.52;4.43;;;7.40;94.70;;;;;;5020087;28;20025;-77
2023/01/10 01:16:31;;;;;;;13.15;4.28;;;7.40;94.70;;;;;;5037850;28;20083;-76
2023/01/10 01:18:58;;;;;;;17.33;4.18;;;7.40;94.70;;;;;;5032378;28;20030;-76
2023/01/10 01:21:27;;;;;;;20.67;5.13;;;7.30;94.70;;;;;;5016161;28;20525;-75
2023/01/10 01:23:56;;;;;;;18.42;4.13;;;7.30;94.70;;;;;;5052832;28;20017;-75
2023/01/10 01:26:22;;;;;;;14.48;5.45;;;7.30;94.80;;;;;;5035630;28;20077;-75
2023/01/10 01:28:48;;;;;;;21.60;4.10;;;7.30;94.80;;;;;;5010954;28;20025;-75
2023/01/10 01:31:14;;;;;;;19.92;4.72;;;7.40;94.80;;;;;;4995895;28;20126;-76
2023/01/10 01:33:45;;;;;;;22.95;5.30;;;7.40;94.80;;;;;;5016908;28;20077;-76
2023/01/10 01:36:12;;;;;;;13.63;3.33;;;7.30;94.80;;;;;;5001354;28;20049;-76
2023/01/10 01:38:39;;;;;;;16.48;4.45;;;7.30;94.90;;;;;;5014654;28;20288;-76
2023/01/10 01:41:55;;;;;;;17.40;3.78;;;7.30;94.90;;;;;;5011533;28;20046;-76
2023/01/10 01:44:05;;;;;;;14.50;3.30;;;7.30;94.90;;;;;;5003050;28;20049;-76
2023/01/10 01:46:34;;;;;;;18.38;4.07;;;7.20;95.00;;;;;;5015318;28;20032;-75
2023/01/10 01:49:01;;;;;;;17.25;3.58;;;7.20;95.00;;;;;;5004151;28;20485;-75
2023/01/10 01:51:29;;;;;;;22.88;3.42;;;7.20;95.00;;;;;;5003439;28;20049;-76
2023/01/10 01:54:00;;;;;;;19.00;3.42;;;7.20;95.10;;;;;;5015644;28;20021;-77
2023/01/10 01:56:33;;;;;;;24.75;4.03;;;7.20;95.20;;;;;;5011566;28;20045;-76
2023/01/10 01:59:06;;;;;;;24.23;4.47;;;7.20;95.20;;;;;;5010434;28;20085;-78
2023/01/10 02:01:33;;;;;;;19.73;3.28;;;7.20;95.20;;;;;;5018807;28;20034;-75
2023/01/10 02:04:27;;;;;;;19.02;4.28;;;7.10;95.30;;;;;;5016311;28;20018;-76
2023/01/10 02:06:55;;;;;;;22.17;4.32;;;7.10;95.40;;;;;;5020478;28;20826;-77
2023/01/10 02:09:30;;;;;;;14.93;3.13;;;7.10;95.50;;;;;;5011124;28;20030;-77
2023/01/10 02:11:56;;;;;;;22.27;3.78;;;7.00;95.60;;;;;;5000061;28;20061;-77
2023/01/10 02:14:25;;;;;;;29.35;6.57;;;7.00;95.70;;;;;;5009409;28;20093;-76
2023/01/10 02:16:50;;;;;;;18.98;3.92;;;6.90;95.80;;;;;;4996266;28;20161;-75
2023/01/10 02:19:42;;;;;;;16.05;3.55;;;6.90;95.90;;;;;;5002051;28;20129;-77
2023/01/10 02:22:20;;;;;;;15.55;3.25;;;6.90;95.90;;;;;;5002767;28;20049;-76
2023/01/10 02:25:24;;;;;;;16.83;2.88;;;6.90;95.90;;;;;;5001618;28;20026;-76
2023/01/10 02:27:56;;;;;;;23.40;4.72;;;6.90;96.00;;;;;;5037677;28;20049;-76
2023/01/10 02:30:34;;;;;;;18.67;3.83;;;7.00;96.00;;;;;;5054188;28;20558;-76
2023/01/10 02:33:16;;;;;;;15.15;3.60;;;7.00;96.10;;;;;;5039571;28;20400;-75
2023/01/10 02:36:02;;;;;;;14.93;3.47;;;7.10;96.10;;;;;;5046080;28;20040;-78
2023/01/10 02:38:57;;;;;;;21.30;4.43;;;7.10;96.10;;;;;;5036935;28;20045;-76
2023/01/10 02:41:31;;;;;;;13.65;3.75;;;7.20;96.10;;;;;;5055831;28;20313;-76
2023/01/10 02:44:06;;;;;;;19.05;4.05;;;7.20;96.30;;;;;;5031301;28;20022;-76
2023/01/10 02:46:33;;;;;;;21.95;4.07;;;7.20;96.40;;;;;;5029946;28;20021;-76
2023/01/10 02:48:59;;;;;;;22.42;4.40;;;7.30;96.50;;;;;;5042936;28;20069;-76
2023/01/10 02:51:28;;;;;;;20.55;3.17;;;7.30;96.50;;;;;;5043089;28;20110;-75
2023/01/10 02:54:12;;;;;;;18.00;4.03;;;7.30;96.60;;;;;;5012482;28;20037;-76
2023/01/10 02:57:08;;;;;;;20.08;3.30;;;7.30;96.80;;;;;;5039665;28;20029;-76
2023/01/10 02:59:58;;;;;;;20.30;3.20;;;7.30;96.90;;;;;;5055507;28;20029;-77
2023/01/10 03:02:42;;;;;;;12.63;2.88;;;7.30;97.20;;;;;;5062055;28;20028;-76
2023/01/10 03:05:22;;;;;;;22.25;4.05;;;7.30;97.10;;;;;;5036457;28;20075;-75
2023/01/10 03:08:08;;;;;;;15.30;3.03;;;7.30;97.30;;;;;;5045433;28;20031;-76
2023/01/10 03:10:41;;;;;;;19.42;3.25;;;7.30;97.50;;;;;;5026812;28;20496;-76
2023/01/10 03:13:18;;;;;;;21.98;4.07;;;7.20;97.30;;;;;;5040194;28;20021;-76
2023/01/10 03:15:47;;;;;;;21.42;3.22;;;7.30;97.40;;;;;;5051823;28;20025;-77
2023/01/10 03:18:27;;;;;;;20.40;3.40;;;7.30;97.40;;;;;;5048312;28;20165;-76
2023/01/10 03:20:55;;;;;;;26.88;3.90;;;7.30;97.40;;;;;;5038022;28;20546;-76
2023/01/10 03:23:23;;;;;;;19.90;3.70;;;7.30;97.40;;;;;;5041143;28;20106;-76
2023/01/10 03:25:50;;;;;;;21.83;3.65;;;7.30;97.40;;;;;;5034956;28;20168;-76
2023/01/10 03:28:22;;;;;;;18.00;3.33;;;7.20;97.40;;;;;;5064990;28;20080;-77
2023/01/10 03:31:04;;;;;;;18.48;3.65;;;7.20;97.50;;;;;;5020291;28;20029;-76
2023/01/10 03:33:31;;;;;;;17.50;3.85;;;7.30;97.50;;;;;;5056183;28;20063;-76
2023/01/10 03:36:35;;;;;;;18.88;4.00;;;7.30;97.50;;;;;;5038158;28;20029;-77
2023/01/10 03:39:10;;;;;;;16.98;3.50;;;7.20;97.60;;;;;;5030203;28;20116;-76
2023/01/10 03:41:52;;;;;;;20.33;3.50;;;7.20;97.50;;;;;;5022973;28;20040;-77
2023/01/10 03:44:49;;;;;;;12.70;3.15;;;7.30;97.50;;;;;;5043706;28;20457;-76
2023/01/10 03:47:22;;;;;;;19.60;3.67;;;7.30;97.50;;;;;;5048707;28;20091;-76
2023/01/10 03:49:52;;;;;;;22.23;4.18;;;7.20;97.60;;;;;;5036175;28;20009;-76
2023/01/10 03:52:19;;;;;;;19.67;2.97;;;7.20;97.60;;;;;;5030911;28;20088;-76
2023/01/10 03:54:47;;;;;;;20.08;4.20;;;7.20;97.60;;;;;;5032304;28;20764;-75
2023/01/10 03:57:22;;;;;;;23.92;4.40;;;7.30;97.60;;;;;;5021805;28;20025;-77
2023/01/10 03:59:56;;;;;;;22.88;5.68;;;7.30;97.60;;;;;;5039346;28;20037;-76
2023/01/10 04:02:26;;;;;;;23.35;5.10;;;7.30;97.70;;;;;;5035098;28;20035;-77
2023/01/10 04:04:52;;;;;;;25.75;6.38;;;7.20;97.70;;;;;;5045035;28;20040;-75
2023/01/10 04:07:17;;;;;;;20.55;5.15;;;7.20;97.80;;;;;;5015432;28;20022;-76
2023/01/10 04:09:43;;;;;;;17.92;4.72;;;7.10;97.90;;;;;;5054799;28;20066;-77
2023/01/10 04:12:09;;;;;;;20.48;4.32;;;7.20;97.90;;;;;;5021863;28;21217;-77
2023/01/10 04:14:35;;;;;;;21.35;4.97;;;7.20;98.00;;;;;;5050071;28;20020;-76
2023/01/10 04:17:01;;;;;;;32.53;5.53;;;7.30;97.80;;;;;;5043231;28;20131;-76
2023/01/10 04:19:27;;;;;;;24.40;5.50;;;7.30;97.80;;;;;;5058965;28;20360;-77
2023/01/10 04:21:52;;;;;;;23.75;5.65;;;7.30;97.70;;;;;;5012522;28;20030;-76
2023/01/10 04:24:18;;;;;;;31.17;5.78;;;7.30;97.80;;;;;;5055930;28;20359;-76
2023/01/10 04:26:44;;;;;;;29.88;6.97;;;7.20;98.00;;;;;;5051924;28;20053;-76
2023/01/10 04:29:10;;;;;;;21.88;6.07;;;7.20;98.10;;;;;;5052250;28;20483;-76
2023/01/10 04:31:35;;;;;;;25.92;6.88;;;7.10;98.20;;;;;;5059305;28;20392;-77
2023/01/10 04:34:01;;;;;;;22.52;6.63;;;7.20;98.20;;;;;;5049682;28;20032;-76
2023/01/10 04:36:27;;;;;;;21.52;6.60;;;7.20;98.10;;;;;;5044318;28;20029;-76
2023/01/10 04:38:52;;;;;;;24.23;6.40;;;7.20;98.10;;;;;;5024880;28;20057;-76
2023/01/10 04:41:18;;;;;;;18.70;6.60;;;7.10;98.20;;;;;;5026678;28;20344;-76
2023/01/10 04:43:44;;;;;;;22.77;7.40;;;7.10;98.20;;;;;;5044655;28;20396;-77
2023/01/10 04:46:09;;;;;;;26.98;7.25;;;7.10;98.20;;;;;;5046127;28;20113;-76
2023/01/10 04:48:36;;;;;;;24.25;6.88;;;7.10;98.20;;;;;;5040980;28;20012;-76
2023/01/10 04:51:02;;;;;;;22.75;7.88;;;7.10;98.30;;;;;;5050068;28;20029;-76
2023/01/10 04:53:28;;;;;;;24.20;6.53;;;7.00;98.30;;;;;;5055299;28;20025;-76
2023/01/10 04:55:53;;;;;;;27.05;7.38;;;7.00;98.40;;;;;;5046320;28;20040;-76
2023/01/10 04:58:19;;;;;;;29.70;8.63;;;7.00;98.40;;;;;;5019857;28;20040;-76
2023/01/10 05:00:45;;;;;;;29.02;7.43;;;7.00;98.50;;;;;;5053175;28;20119;-76
2023/01/10 05:03:10;;;;;;;29.30;7.82;;;7.00;98.50;;;;;;5052758;28;20129;-76
2023/01/10 05:05:36;;;;;;;25.45;6.35;;;7.00;98.40;;;;;;5026201;28;20018;-75
2023/01/10 05:08:02;;;;;;;25.55;7.05;;;7.10;98.30;;;;;;5017244;28;20017;-76
2023/01/10 05:10:27;;;;;;;22.95;7.25;;;7.00;98.30;;;;;;5045579;28;20079;-76
2023/01/10 05:12:53;;;;;;;29.02;7.85;;;7.10;98.30;;;;;;5034887;28;20142;-77
2023/01/10 05:15:20;;;;;;;23.17;7.05;;;7.10;98.30;;;;;;5043032;28;20834;-76
2023/01/10 05:17:45;;;;;;;27.23;7.85;;;7.10;98.30;;;;;;5049978;28;20076;-76
2023/01/10 05:20:12;;;;;;;29.45;8.25;;;7.10;98.20;;;;;;5044700;28;20535;-77
2023/01/10 05:22:38;;;;;;;29.75;6.20;;;7.10;98.20;;;;;;5056270;28;20107;-76
2023/01/10 05:25:04;;;;;;;25.50;7.20;;;7.20;98.10;;;;;;5044577;28;20182;-77
2023/01/10 05:27:30;;;;;;;30.77;6.75;;;7.20;98.10;;;;;;5060935;28;20044;-76
2023/01/10 05:29:56;;;;;;;25.63;5.78;;;7.30;98.00;;;;;;5042082;28;20877;-77
2023/01/10 05:32:21;;;;;;;28.60;6.18;;;7.20;98.00;;;;;;5044503;28;20053;-77
2023/01/10 05:34:47;;;;;;;18.17;6.30;;;7.20;98.10;;;;;;5034062;28;20029;-76
2023/01/10 05:37:13;;;;;;;31.45;8.10;;;7.30;98.00;;;;;;5045060;28;20022;-78
2023/01/10 05:39:41;;;;;;;28.35;6.55;;;7.40;97.90;;;;;;5012842;28;20022;-77
2023/01/10 05:42:07;;;;;;;30.77;6.60;;;7.40;97.80;;;;;;5062881;28;20008;-75
2023/01/10 05:44:33;;;;;;;22.45;5.22;;;7.30;97.70;;;;;;5059965;28;20114;-77
2023/01/10 05:46:58;;;;;;;28.48;7.82;;;7.30;97.80;;;;;;5051824;28;20029;-76
2023/01/10 05:49:24;;;;;;;27.33;5.38;;;7.40;97.80;;;;;;5040113;28;20022;-75
2023/01/10 05:51:50;;;;;;;30.55;6.57;;;7.40;97.70;;;;;;5054608;28;20023;-77
2023/01/10 05:54:15;;;;;;;35.75;6.95;;;7.40;97.70;;;;;;5029426;28;20079;-77
2023/01/10 05:56:41;;;;;;;31.40;7.07;;;7.40;97.60;;;;;;5044842;28;20029;-77
2023/01/10 05:59:08;;;;;;;31.30;6.15;;;7.50;97.50;;;;;;5028790;28;20040;-77
2023/01/10 06:01:34;;;;;;;26.75;6.07;;;7.40;97.50;;;;;;5043579;28;20033;-77
2023/01/10 06:03:59;;;;;;;21.17;6.32;;;7.50;97.40;;;;;;5019811;28;20569;-75
2023/01/10 06:06:25;;;;;;;23.00;7.07;;;7.40;97.50;;;;;;5021829;28;20021;-78
2023/01/10 06:08:51;;;;;;;24.40;6.57;;;7.50;97.50;;;;;;5052592;28;20023;-78
2023/01/10 06:11:16;;;;;;;21.73;5.63;;;7.50;97.40;;;;;;5040911;28;20020;-76
2023/01/10 06:13:42;;;;;;;35.45;7.45;;;7.50;97.30;;;;;;5066323;28;20106;-78
2023/01/10 06:16:07;;;;;;;30.48;6.43;;;7.50;97.30;;;;;;5039138;28;20026;-78
2023/01/10 06:18:33;;;;;;;28.42;8.05;;;7.50;97.20;;;;;;5056498;28;20027;-77
2023/01/10 06:20:59;;;;;;;26.63;5.85;;;7.40;97.10;;;;;;5034271;28;20026;-78
2023/01/10 06:23:25;;;;;;;26.25;5.93;;;7.50;97.10;;;;;;5042526;28;20479;-78
2023/01/10 06:25:51;;;;;;;22.05;6.15;;;7.50;97.00;;;;;;5035053;28;20067;-78
2023/01/10 06:28:16;;;;;;;29.38;7.35;;;7.50;97.00;;;;;;5042149;28;20097;-78
2023/01/10 06:30:42;;;;;;;23.83;5.95;;;7.40;96.90;;;;;;5039433;28;20021;-77
2023/01/10 06:33:09;;;;;;;35.13;9.10;;;7.30;96.90;;;;;;5043925;28;20020;-78
2023/01/10 06:35:35;;;;;;;27.38;7.40;;;7.40;97.00;;;;;;5036534;28;20025;-78
2023/01/10 06:38:02;;;;;;;21.77;5.40;;;7.30;97.00;;;;;;5035737;28;20025;-77
2023/01/10 06:40:28;;;;;;;28.73;5.78;;;7.40;97.00;;;;;;5055605;28;20041;-77
2023/01/10 06:42:53;;;;;;;28.92;7.45;;;7.30;97.00;;;;;;5044355;28;20029;-78
2023/01/10 06:45:19;;;;;;;26.67;6.82;;;7.20;97.10;;;;;;5036913;28;20112;-77
2023/01/10 06:47:46;;;;;;;25.83;5.63;;;7.30;97.20;;;;;;5021798;28;20048;-79
2023/01/10 06:50:12;;;;;;;32.28;6.85;;;7.30;97.20;;;;;;5023825;28;20037;-77
2023/01/10 06:52:40;;;;;;;28.08;7.68;;;7.30;97.20;;;;;;5039032;28;20040;-79
2023/01/10 06:55:06;;;;;;;29.02;7.05;;;7.30;97.20;;;;;;5047664;28;20033;-77
2023/01/10 06:57:37;;;;;;;33.83;7.32;;;7.30;97.10;;;;;;5035871;28;20033;-76
2023/01/10 07:00:07;;;;;;;;;;;7.30;97.10;;;;;;5055171;28;20033;-77
2023/01/10 07:02:33;;;;;;;27.52;6.80;;;7.40;97.10;;;;;;5017168;28;19912;-77
2023/01/10 07:04:58;;;;;;;24.05;6.38;;;7.30;97.10;;;;;;5066913;28;20017;-77
2023/01/10 07:07:24;;;;;;;23.20;5.55;;;7.30;97.20;;;;;;5049518;28;20026;-77
2023/01/10 07:09:50;;;;;;;28.60;7.00;;;7.40;97.10;;;;;;5054155;28;20108;-78
2023/01/10 07:12:18;;;;;;;32.05;6.57;;;7.40;97.10;;;;;;5054390;28;20021;-77
2023/01/10 07:14:44;;;;;;;21.73;5.82;;;7.40;97.00;;;;;;5031066;28;20073;-77
2023/01/10 07:17:10;;;;;;;30.73;5.80;;;7.40;96.90;;;;;;5033396;28;20036;-77
2023/01/10 07:19:36;;;;;;;35.35;5.93;;;7.40;96.80;;;;;;5053272;28;20390;-78
2023/01/10 07:22:02;;;;;;;23.60;6.40;;;7.50;96.80;;;;;;5044141;28;20438;-78
2023/01/10 07:24:28;;;;;;;21.75;4.60;;;7.50;96.80;;;;;;5027787;28;20012;-78
2023/01/10 07:26:55;;;;;;;25.60;4.88;;;7.50;96.80;;;;;;5009873;28;20050;-77
2023/01/10 07:29:21;;;;;;;24.05;4.53;;;7.60;97.00;;;;;;4998976;28;20022;-77
2023/01/10 07:31:46;;;;;;;22.83;5.60;;;7.60;96.80;;;;;;5003462;28;20113;-77
2023/01/10 07:34:12;;;;;;;23.65;6.47;;;7.70;96.90;;;;;;4999147;28;20449;-76
2023/01/10 07:36:38;;;;;;;30.27;6.20;;;7.60;96.70;;;;;;5006772;28;20026;-77
2023/01/10 07:39:04;;;;;;;29.90;5.90;;;7.60;96.60;;;;;;5006226;28;20112;-77
2023/01/10 07:41:29;;;;;;;26.45;5.88;;;7.50;96.50;;;;;;5005245;28;20117;-77
2023/01/10 07:43:55;;;;;;;44.13;8.07;;;7.50;96.50;;;;;;4989956;28;20023;-77
2023/01/10 07:46:20;;;;;;;21.48;5.15;;;7.50;96.50;;;;;;5000142;28;20025;-78
2023/01/10 07:48:47;;;;;;;23.15;5.20;;;7.50;96.60;;;;;;4993716;28;20518;-77
2023/01/10 07:51:13;;;;;;;40.47;7.57;;;7.50;96.60;;;;;;5005301;28;20037;-77
2023/01/10 07:53:39;;;;;;;26.90;5.60;;;7.50;96.50;;;;;;4997423;28;20397;-77
2023/01/10 07:56:05;;;;;;;40.10;7.28;;;7.50;96.60;;;;;;5012131;28;20029;-77
2023/01/10 07:58:32;;;;;;;32.33;5.47;;;7.50;96.50;;;;;;5019238;28;20033;-77
2023/01/10 08:01:02;;;;;;;24.55;6.40;;;7.50;96.50;;;;;;5024115;28;20116;-80
2023/01/10 08:03:28;;;;;;;21.60;5.20;;;7.50;96.50;;;;;;5017473;28;20030;-78
2023/01/10 08:06:03;;;;;;;29.15;5.30;;;7.50;96.60;;;;;;5007941;28;20044;-77
2023/01/10 08:08:30;;;;;;;27.45;5.38;;;7.50;96.60;;;;;;4999517;28;20057;-76
2023/01/10 08:10:58;;;;;;;31.65;6.38;;;7.50;96.50;;;;;;4994418;28;20034;-76
2023/01/10 08:13:24;;;;;;;27.23;6.43;;;7.50;96.30;;;;;;5013927;28;20180;-77
2023/01/10 08:15:51;;;;;;;23.33;4.68;;;7.50;96.10;;;;;;5000180;28;20108;-77
2023/01/10 08:18:17;;;;;;;44.00;8.02;;;7.50;96.00;;;;;;4993911;28;20370;-77
2023/01/10 08:20:45;;;;;;;23.73;6.47;;;7.60;96.00;;;;;;4999692;28;20075;-80
2023/01/10 08:23:11;;;;;;;23.40;5.43;;;7.60;95.80;;;;;;5009188;28;20022;-76
2023/01/10 08:25:37;;;;;;;22.80;5.35;;;7.60;95.70;;;;;;5000633;28;20037;-78
2023/01/10 08:28:02;;;;;;;26.25;5.43;;;7.60;95.70;;;;;;5055081;28;20078;-79
2023/01/10 08:30:28;;;;;;;30.00;5.68;;;7.60;95.70;;;;;;5039673;28;20037;-78
2023/01/10 08:32:54;;;;;;;39.17;7.20;;;7.60;95.70;;;;;;5051401;28;20017;-77
2023/01/10 08:35:19;;;;;;;33.83;6.18;;;7.50;95.70;;;;;;5035697;28;20036;-77
2023/01/10 08:37:45;;;;;;;34.55;8.85;;;7.50;95.80;;;;;;5047648;28;20024;-79
2023/01/10 08:40:11;;;;;;;35.08;7.55;;;7.50;95.80;;;;;;5033174;28;20480;-79
2023/01/10 08:42:37;;;;;;;26.95;5.03;;;7.50;95.80;;;;;;5045120;28;20044;-77
2023/01/10 08:45:03;;;;;;;24.75;4.90;;;7.50;95.70;;;;;;5067395;28;20033;-77
2023/01/10 08:47:28;;;;;;;33.92;7.15;;;7.50;95.60;;;;;;5063369;28;20077;-78
2023/01/10 08:49:54;;;;;;;35.05;8.65;;;7.50;95.70;;;;;;5022264;28;20033;-76
2023/01/10 08:52:20;;;;;;;32.15;5.90;;;7.60;95.70;;;;;;5035704;28;20065;-77
2023/01/10 08:54:45;;;;;;;32.22;5.95;;;7.60;95.60;;;;;;5026218;28;20025;-78
2023/01/10 08:57:11;;;;;;;27.65;7.60;;;7.60;95.60;;;;;;5025908;28;20021;-79
2023/01/10 08:59:36;;;;;;;30.38;5.43;;;7.50;95.70;;;;;;5045828;28;20645;-77
2023/01/10 09:02:03;;;;;;;28.80;7.07;;;7.60;95.80;;;;;;5047610;28;20028;-77
2023/01/10 09:04:30;;;;;;;27.23;6.93;;;7.70;95.70;;;;;;5030734;28;20396;-77
2023/01/10 09:06:56;;;;;;;22.08;5.28;;;7.60;95.50;;;;;;5045108;28;20033;-79
2023/01/10 09:09:22;;;;;;;27.85;5.00;;;7.70;95.70;;;;;;5057862;28;20016;-76
2023/01/10 09:11:48;;;;;;;36.83;6.65;;;7.80;95.50;;;;;;5026553;28;20426;-77
2023/01/10 09:14:14;;;;;;;14.52;3.75;;;7.80;95.40;;;;;;5031445;28;20021;-80
2023/01/10 09:16:40;;;;;;;25.50;5.63;;;7.90;95.50;;;;;;5015065;28;20099;-77
2023/01/10 09:19:05;;;;;;;26.08;5.57;;;7.90;95.40;;;;;;5026899;28;20025;-78
2023/01/10 09:21:31;;;;;;;24.40;5.35;;;8.00;95.30;;;;;;5032894;28;20071;-77
2023/01/10 09:23:56;;;;;;;26.08;5.25;;;8.00;95.00;;;;;;5035861;28;20036;-79
2023/01/10 09:26:22;;;;;;;33.65;5.88;;;7.90;94.90;;;;;;5017493;28;20044;-78
2023/01/10 09:28:48;;;;;;;31.08;5.32;;;7.90;95.00;;;;;;5017260;28;20036;-78
2023/01/10 09:31:14;;;;;;;29.25;5.88;;;8.00;95.10;;;;;;5035651;28;20017;-78
2023/01/10 09:33:41;;;;;;;25.05;4.78;;;8.00;94.90;;;;;;5017022;28;20040;-79
2023/01/10 09:36:08;;;;;;;19.60;4.53;;;8.00;95.10;;;;;;5033498;28;20762;-80
2023/01/10 09:38:34;;;;;;;25.63;6.93;;;8.10;95.00;;;;;;5034392;28;20064;-79
2023/01/10 09:41:09;;;;;;;22.80;6.15;;;8.10;95.00;;;;;;5032757;28;20116;-79
2023/01/10 09:44:02;;;;;;;28.08;6.13;;;8.00;94.80;;;;;;5035485;28;20033;-78
2023/01/10 09:46:48;;;;;;;22.80;5.82;;;8.00;94.70;;;;;;5027040;28;20175;-77
2023/01/10 09:49:42;;;;;;;32.72;6.28;;;8.00;95.00;;;;;;5021520;28;21342;-80
2023/01/10 09:52:20;;;;;;;22.58;4.90;;;8.00;95.10;;;;;;5057692;28;20131;-83
2023/01/10 09:54:49;;;;;;;30.85;6.15;;;8.00;94.90;;;;;;5039436;28;20489;-82
2023/01/10 09:57:21;;;;;;;19.75;5.40;;;8.10;94.70;;;;;;5036941;28;20091;-80
2023/01/10 09:59:50;;;;;;;28.38;6.15;;;8.10;94.60;;;;;;5029998;28;20086;-81
2023/01/10 10:02:22;;;;;;;25.25;5.78;;;8.10;94.30;;;;;;5040592;28;20041;-82
2023/01/10 10:05:03;;;;;;;29.42;7.68;;;8.10;94.30;;;;;;5019512;28;20349;-79
2023/01/10 10:07:30;;;;;;;21.33;4.55;;;8.00;94.20;;;;;;5017552;28;20361;-77
2023/01/10 10:09:56;;;;;;;27.30;5.47;;;7.90;94.40;;;;;;5016675;28;20036;-79
2023/01/10 10:12:44;;;;;;;28.92;6.63;;;7.90;94.30;;;;;;5032897;28;20030;-78
2023/01/10 10:15:28;;;;;;;29.60;5.00;;;7.90;94.30;;;;;;5034401;28;20392;-77
2023/01/10 10:18:22;;;;;;;23.85;5.38;;;7.90;94.20;;;;;;5035804;28;20461;-79
2023/01/10 10:21:10;;;;;;;29.58;6.05;;;7.90;94.30;;;;;;5030988;28;20195;-76
2023/01/10 10:24:03;;;;;;;28.48;6.90;;;7.90;94.40;;;;;;5032137;28;20038;-78
2023/01/10 10:26:33;;;;;;;30.98;6.22;;;7.90;94.60;;;;;;5032826;28;20076;-78
2023/01/10 10:29:20;;;;;;;30.48;5.40;;;7.90;94.70;;;;;;5038269;28;20036;-74
2023/01/10 10:32:12;;;;;;;29.70;6.30;;;7.90;95.00;;;;;;5035565;28;20179;-77
2023/01/10 10:34:44;;;;;;;29.25;7.10;;;7.80;94.90;;;;;;5033911;28;21524;-77
2023/01/10 10:37:32;;;;;;;28.92;5.40;;;7.80;94.50;;;;;;5034876;28;20022;-77
2023/01/10 10:40:05;;;;;;;27.50;5.93;;;7.80;94.60;;;;;;5031946;28;20089;-76
2023/01/10 10:42:34;;;;;;;26.85;5.47;;;7.80;94.40;;;;;;5034901;28;20468;-74
2023/01/10 10:45:14;;;;;;;31.10;5.63;;;7.90;94.60;;;;;;5030198;28;20463;-78
2023/01/10 10:47:48;;;;;;;33.08;5.07;;;7.90;94.20;;;;;;5031153;28;20391;-78
2023/01/10 10:50:14;;;;;;;21.35;5.13;;;7.90;94.10;;;;;;5016751;28;20446;-76
2023/01/10 10:52:41;;;;;;;27.30;5.20;;;8.10;94.30;;;;;;5034564;28;20021;-79
2023/01/10 10:55:14;;;;;;;22.45;5.07;;;8.10;94.20;;;;;;5020277;28;20056;-77
2023/01/10 10:57:40;;;;;;;26.60;5.28;;;8.10;94.30;;;;;;5033385;28;20478;-76
2023/01/10 11:00:12;;;;;;;28.77;6.18;;;8.00;94.20;;;;;;5036922;28;20087;-79
2023/01/10 11:02:43;;;;;;;28.15;6.60;;;8.00;93.90;;;;;;5035894;28;20033;-77
2023/01/10 11:05:27;;;;;;;25.90;5.85;;;8.10;93.70;;;;;;5039125;28;20021;-78
2023/01/10 11:07:59;;;;;;;22.63;5.72;;;8.10;94.10;;;;;;5017113;28;20112;-77
2023/01/10 11:10:37;;;;;;;24.50;4.60;;;8.10;94.20;;;;;;5033085;28;20037;-75
2023/01/10 11:13:15;;;;;;;28.05;6.20;;;8.00;93.80;;;;;;5030500;28;20034;-76
2023/01/10 11:15:45;;;;;;;22.45;4.55;;;8.00;93.80;;;;;;5035368;28;20467;-77
2023/01/10 11:18:22;;;;;;;21.77;5.03;;;8.10;93.90;;;;;;5033488;28;20036;-76
2023/01/10 11:21:04;;;;;;;27.27;5.68;;;8.10;93.80;;;;;;5032134;28;20104;-75
2023/01/10 11:23:39;;;;;;;31.65;5.55;;;8.10;94.10;;;;;;5035278;28;20033;-77
2023/01/10 11:26:22;;;;;;;28.00;4.88;;;8.10;93.90;;;;;;5030134;28;20045;-77
2023/01/10 11:28:51;;;;;;;24.67;4.20;;;8.10;93.60;;;;;;5016801;28;20029;-75
2023/01/10 11:31:28;;;;;;;20.80;5.32;;;8.00;93.70;;;;;;5031170;28;21321;-77
2023/01/10 11:33:55;;;;;;;20.88;4.75;;;8.10;93.90;;;;;;5034837;28;20571;-76
2023/01/10 11:36:22;;;;;;;23.85;5.00;;;8.10;94.20;;;;;;5033379;28;20044;-77
2023/01/10 11:39:02;;;;;;;25.83;4.63;;;8.10;94.10;;;;;;5031741;28;20120;-76
2023/01/10 11:41:33;;;;;;;;;;;8.20;93.70;;;;;;5013806;28;20036;-77
2023/01/10 11:44:27;;;;;;;23.38;4.22;;;8.20;93.90;;;;;;5038296;28;20260;-77
2023/01/10 11:46:55;;;;;;;21.75;3.72;;;8.20;94.00;;;;;;5031496;28;20077;-76
2023/01/10 11:49:31;;;;;;;27.77;5.35;;;8.20;94.00;;;;;;5051617;28;20118;-77
2023/01/10 11:52:04;;;;;;;22.75;4.65;;;8.20;93.90;;;;;;5040802;28;20013;-78
2023/01/10 11:54:31;;;;;;;24.20;4.15;;;8.30;93.80;;;;;;5045025;28;20486;-77
2023/01/10 11:57:08;;;;;;;24.02;4.47;;;8.30;94.30;;;;;;5027706;28;20026;-76
2023/01/10 11:59:34;;;;;;;29.33;5.60;;;8.40;94.70;;;;;;5050790;28;20013;-76
2023/01/10 12:02:10;;;;;;;27.00;5.22;;;8.40;94.40;;;;;;5047874;28;20365;-76
2023/01/10 12:04:42;;;;;;;24.60;5.03;;;8.40;94.00;;;;;;5032414;28;20018;-75
2023/01/10 12:07:10;;;;;;;25.75;5.35;;;8.30;94.20;;;;;;5044627;28;20040;-75
2023/01/10 12:09:41;;;;;;;24.13;4.93;;;8.40;93.90;;;;;;5047291;28;20402;-77
2023/01/10 12:12:21;;;;;;;23.83;4.35;;;8.40;93.70;;;;;;5041210;28;20132;-77
2023/01/10 12:14:47;;;;;;;18.90;4.07;;;8.40;94.40;;;;;;5035264;28;20052;-75
2023/01/10 12:17:24;;;;;;;20.60;5.18;;;8.40;93.70;;;;;;5032375;28;20013;-77
2023/01/10 12:19:55;;;;;;;34.25;5.80;;;8.40;93.80;;;;;;5035047;28;20028;-76
2023/01/10 12:22:29;;;;;;;23.58;4.00;;;8.40;94.20;;;;;;5035932;28;20025;-77
2023/01/10 12:24:55;;;;;;;29.27;5.53;;;8.40;94.10;;;;;;5054674;28;20028;-76
2023/01/10 12:27:24;;;;;;;19.83;4.10;;;8.50;93.60;;;;;;5056942;28;20041;-76
2023/01/10 12:30:05;;;;;;;19.67;4.78;;;8.50;93.90;;;;;;5042542;28;20028;-74
2023/01/10 12:32:38;;;;;;;26.23;5.20;;;8.50;93.80;;;;;;5058173;28;20117;-75
2023/01/10 12:35:12;;;;;;;18.98;4.78;;;8.50;93.70;;;;;;5048608;28;20471;-76
2023/01/10 12:37:50;;;;;;;24.50;5.15;;;8.50;93.90;;;;;;5043267;28;20026;-76
2023/01/10 12:40:36;;;;;;;29.10;7.13;;;8.50;93.90;;;;;;5023895;28;20116;-75
2023/01/10 12:46:19;;;;;;;25.00;4.60;;;8.50;94.60;;;;;;5058425;28;20040;-76
2023/01/10 12:48:48;;;;;;;23.23;4.70;;;8.50;94.20;;;;;;5010929;28;20087;-76
2023/01/10 12:51:19;;;;;;;19.80;3.83;;;8.60;94.50;;;;;;5056529;28;20056;-77
2023/01/10 12:53:51;;;;;;;;;;;8.60;94.50;;;;;;5050019;28;20279;-77
2023/01/10 12:56:19;;;;;;;20.30;5.35;;;8.60;94.40;;;;;;5026937;28;20255;-76
2023/01/10 12:59:09;;;;;;;29.17;5.07;;;8.60;94.30;;;;;;5047546;28;20125;-75
2023/01/10 13:01:41;;;;;;;18.60;4.03;;;8.50;94.00;;;;;;5047479;28;20041;-76
2023/01/10 13:04:11;;;;;;;16.83;4.00;;;8.50;94.00;;;;;;5039519;28;20021;-77
2023/01/10 13:06:40;;;;;;;29.20;5.03;;;8.50;94.40;;;;;;5049040;28;20019;-75
2023/01/10 13:09:14;;;;;;;16.10;3.25;;;8.50;94.30;;;;;;5029800;28;20146;-76
2023/01/10 13:12:02;;;;;;;24.75;4.10;;;8.60;95.10;;;;;;5042582;28;20391;-76